createdAt,value
2018-11-28T00:02:24.285Z,-3.00
2018-11-28T00:04:52.509Z,-3.00
2018-11-28T00:07:20.568Z,-3.10
2018-11-28T00:09:48.827Z,-3.20
2018-11-28T00:12:16.877Z,-3.20
2018-11-28T00:14:45.000Z,-3.20
2018-11-28T00:17:13.258Z,-3.20
2018-11-28T00:19:42.081Z,-3.20
2018-11-28T00:22:11.080Z,-3.20
2018-11-28T00:24:39.220Z,-3.20
2018-11-28T00:27:07.362Z,-3.30
2018-11-28T00:29:35.399Z,-3.30
2018-11-28T00:32:03.600Z,-3.30
2018-11-28T00:34:31.624Z,-3.40
2018-11-28T00:37:00.468Z,-3.40
2018-11-28T00:39:28.627Z,-3.40
2018-11-28T00:41:56.767Z,-3.40
2018-11-28T00:44:25.060Z,-3.30
2018-11-28T00:46:53.531Z,-3.40
2018-11-28T00:49:21.627Z,-3.40
2018-11-28T00:51:49.827Z,-3.50
2018-11-28T00:54:17.972Z,-3.50
2018-11-28T00:56:46.075Z,-3.40
2018-11-28T00:59:14.464Z,-3.50
2018-11-28T01:01:42.642Z,-3.40
2018-11-28T01:04:10.793Z,-3.50
2018-11-28T01:06:38.996Z,-3.60
2018-11-28T01:09:07.545Z,-3.60
2018-11-28T01:11:35.639Z,-3.70
2018-11-28T01:14:03.771Z,-3.70
2018-11-28T01:21:07.924Z,-3.70
2018-11-28T01:23:36.192Z,-3.70
2018-11-28T01:26:04.219Z,-3.70
2018-11-28T01:28:32.256Z,-3.70
2018-11-28T01:31:00.460Z,-3.70
2018-11-28T01:33:28.569Z,-3.70
2018-11-28T01:35:57.277Z,-3.70
2018-11-28T01:38:25.635Z,-3.70
2018-11-28T01:40:53.904Z,-3.80
2018-11-28T01:43:21.934Z,-3.90
2018-11-28T01:45:50.248Z,-3.90
2018-11-28T01:48:18.347Z,-3.90
2018-11-28T01:50:46.972Z,-3.90
2018-11-28T01:53:15.100Z,-3.90
2018-11-28T01:55:43.300Z,-3.90
2018-11-28T01:58:11.547Z,-4.00
2018-11-28T02:00:39.947Z,-4.10
2018-11-28T02:03:08.135Z,-4.10
2018-11-28T02:05:36.298Z,-4.10
2018-11-28T02:08:04.493Z,-4.20
2018-11-28T02:10:32.588Z,-4.20
2018-11-28T02:13:00.669Z,-4.30
2018-11-28T02:15:29.906Z,-4.30
2018-11-28T02:17:58.089Z,-4.40
2018-11-28T02:20:26.244Z,-4.40
2018-11-28T02:22:54.510Z,-4.30
2018-11-28T02:25:22.751Z,-4.40
2018-11-28T02:27:50.985Z,-4.40
2018-11-28T02:30:19.760Z,-4.40
2018-11-28T02:32:48.243Z,-4.30
2018-11-28T02:35:16.467Z,-4.20
2018-11-28T02:37:44.621Z,-4.20
2018-11-28T02:40:13.263Z,-4.20
2018-11-28T02:42:41.339Z,-4.20
2018-11-28T02:45:24.201Z,-4.10
2018-11-28T02:47:52.451Z,-4.20
2018-11-28T02:50:20.663Z,-4.20
2018-11-28T02:52:48.744Z,-4.20
2018-11-28T02:55:17.367Z,-4.30
2018-11-28T02:57:46.064Z,-4.30
2018-11-28T03:00:15.740Z,-4.40
2018-11-28T03:02:43.812Z,-4.40
2018-11-28T03:05:12.044Z,-4.40
2018-11-28T03:07:40.314Z,-4.40
2018-11-28T03:10:12.091Z,-4.40
2018-11-28T03:12:40.340Z,-4.40
2018-11-28T03:15:10.492Z,-4.50
2018-11-28T03:17:38.558Z,-4.50
2018-11-28T03:20:08.276Z,-4.60
2018-11-28T03:22:37.205Z,-4.50
2018-11-28T03:25:06.083Z,-4.60
2018-11-28T03:27:34.323Z,-4.60
2018-11-28T03:30:02.470Z,-4.60
2018-11-28T03:32:31.449Z,-4.60
2018-11-28T03:34:59.730Z,-4.70
2018-11-28T03:37:27.821Z,-4.70
2018-11-28T03:39:55.952Z,-4.70
2018-11-28T03:42:24.681Z,-4.80
2018-11-28T03:44:52.719Z,-4.70
2018-11-28T03:47:21.033Z,-4.60
2018-11-28T03:49:49.329Z,-4.70
2018-11-28T03:52:17.570Z,-4.70
2018-11-28T03:54:45.668Z,-4.70
2018-11-28T03:57:13.813Z,-4.80
2018-11-28T03:59:42.068Z,-4.70
2018-11-28T04:02:10.945Z,-4.80
2018-11-28T04:04:39.110Z,-4.80
2018-11-28T04:07:07.164Z,-4.80
2018-11-28T04:09:35.252Z,-4.80
2018-11-28T04:12:03.400Z,-4.90
2018-11-28T04:14:31.550Z,-4.90
2018-11-28T04:16:59.680Z,-4.90
2018-11-28T04:19:28.161Z,-4.90
2018-11-28T04:21:56.313Z,-4.90
2018-11-28T04:24:25.157Z,-5.00
2018-11-28T04:26:53.398Z,-5.10
2018-11-28T04:29:21.610Z,-5.00
2018-11-28T04:31:51.231Z,-5.10
2018-11-28T04:34:19.441Z,-5.10
2018-11-28T04:36:47.473Z,-5.20
2018-11-28T04:39:15.789Z,-5.10
2018-11-28T04:41:44.069Z,-5.10
2018-11-28T04:44:12.278Z,-5.10
2018-11-28T04:46:40.354Z,-5.20
2018-11-28T04:49:08.609Z,-5.20
2018-11-28T04:51:36.637Z,-5.30
2018-11-28T04:54:04.915Z,-5.30
2018-11-28T04:56:33.212Z,-5.20
2018-11-28T04:59:01.370Z,-5.30
2018-11-28T05:01:29.616Z,-5.30
2018-11-28T05:03:57.744Z,-5.30
2018-11-28T05:06:31.032Z,-5.30
2018-11-28T05:08:59.231Z,-5.30
2018-11-28T05:11:27.259Z,-5.20
2018-11-28T05:13:55.452Z,-5.20
2018-11-28T05:16:23.689Z,-5.20
2018-11-28T05:18:51.776Z,-5.20
2018-11-28T05:21:19.986Z,-5.30
2018-11-28T05:23:48.028Z,-5.30
2018-11-28T05:26:16.300Z,-5.30
2018-11-28T05:28:44.413Z,-5.30
2018-11-28T05:31:12.556Z,-5.30
2018-11-28T05:33:40.788Z,-5.30
2018-11-28T05:36:08.954Z,-5.30
2018-11-28T05:38:37.145Z,-5.40
2018-11-28T05:41:05.404Z,-5.40
2018-11-28T05:43:33.542Z,-5.30
2018-11-28T05:46:01.620Z,-5.40
2018-11-28T05:48:29.716Z,-5.40
2018-11-28T05:50:58.037Z,-5.30
2018-11-28T05:53:26.395Z,-5.30
2018-11-28T05:55:54.434Z,-5.30
2018-11-28T05:58:22.548Z,-5.30
2018-11-28T06:00:50.809Z,-5.30
2018-11-28T06:03:19.587Z,-5.20
2018-11-28T06:05:48.636Z,-5.20
2018-11-28T06:08:16.780Z,-5.20
2018-11-28T06:10:44.847Z,-5.20
2018-11-28T06:13:13.039Z,-5.30
2018-11-28T06:15:41.105Z,-5.20
2018-11-28T06:18:09.797Z,-5.20
2018-11-28T06:20:37.884Z,-5.30
2018-11-28T06:23:06.255Z,-5.40
2018-11-28T06:25:35.071Z,-5.30
2018-11-28T06:28:03.163Z,-5.30
2018-11-28T06:30:31.216Z,-5.30
2018-11-28T06:32:59.317Z,-5.30
2018-11-28T06:35:27.387Z,-5.30
2018-11-28T06:37:55.565Z,-5.30
2018-11-28T06:40:24.450Z,-5.40
2018-11-28T06:42:51.945Z,-5.40
2018-11-28T06:45:20.897Z,-5.30
2018-11-28T06:47:49.099Z,-5.30
2018-11-28T06:50:17.739Z,-5.40
2018-11-28T06:52:46.624Z,-5.20
2018-11-28T06:55:15.287Z,-5.30
2018-11-28T06:57:43.400Z,-5.30
2018-11-28T07:00:13.112Z,-5.30
2018-11-28T07:02:41.415Z,-5.30
2018-11-28T07:05:09.852Z,-5.30
2018-11-28T07:07:38.799Z,-5.30
2018-11-28T07:10:08.248Z,-5.40
2018-11-28T07:12:36.440Z,-5.40
2018-11-28T07:15:04.919Z,-5.40
2018-11-28T07:17:33.018Z,-5.40
2018-11-28T07:20:01.184Z,-5.40
2018-11-28T07:22:29.314Z,-5.40
2018-11-28T07:24:57.477Z,-5.40
2018-11-28T07:27:25.636Z,-5.40
2018-11-28T07:29:53.765Z,-5.40
2018-11-28T07:32:21.913Z,-5.40
2018-11-28T07:34:50.121Z,-5.40
2018-11-28T07:37:18.269Z,-5.40
2018-11-28T07:39:46.408Z,-5.40
2018-11-28T07:42:14.538Z,-5.40
2018-11-28T07:44:42.849Z,-5.40
2018-11-28T07:47:10.864Z,-5.40
2018-11-28T07:49:38.962Z,-5.40
2018-11-28T07:52:07.253Z,-5.40
2018-11-28T07:54:35.503Z,-5.40
2018-11-28T07:57:03.714Z,-5.40
2018-11-28T07:59:32.053Z,-5.40
2018-11-28T08:02:00.279Z,-5.40
2018-11-28T08:04:28.352Z,-5.30
2018-11-28T08:06:56.732Z,-5.30
2018-11-28T08:09:24.891Z,-5.30
2018-11-28T08:11:52.984Z,-5.30
2018-11-28T08:14:21.167Z,-5.30
2018-11-28T08:16:49.327Z,-5.30
2018-11-28T08:19:17.632Z,-5.40
2018-11-28T08:21:46.068Z,-5.40
2018-11-28T08:24:14.271Z,-5.40
2018-11-28T08:26:42.479Z,-5.40
2018-11-28T08:29:10.612Z,-5.40
2018-11-28T08:31:38.820Z,-5.30
2018-11-28T08:34:06.917Z,-5.30
2018-11-28T08:36:35.279Z,-5.30
2018-11-28T08:39:04.193Z,-5.30
2018-11-28T08:41:32.337Z,-5.30
2018-11-28T08:44:00.401Z,-5.30
2018-11-28T08:46:28.501Z,-5.30
2018-11-28T08:48:56.580Z,-5.20
2018-11-28T08:51:25.616Z,-5.20
2018-11-28T08:53:53.856Z,-5.20
2018-11-28T08:56:21.952Z,-5.20
2018-11-28T08:58:50.849Z,-5.10
2018-11-28T09:01:19.001Z,-5.10
2018-11-28T09:03:47.118Z,-5.10
2018-11-28T09:06:15.401Z,-5.10
2018-11-28T09:08:43.536Z,-5.10
2018-11-28T09:11:11.745Z,-5.00
2018-11-28T09:13:40.082Z,-4.90
2018-11-28T09:16:08.172Z,-4.90
2018-11-28T09:18:37.220Z,-4.90
2018-11-28T09:21:05.848Z,-4.80
2018-11-28T09:23:34.244Z,-4.80
2018-11-28T09:26:02.386Z,-4.80
2018-11-28T09:28:30.642Z,-4.70
2018-11-28T09:30:58.721Z,-4.70
2018-11-28T09:33:27.012Z,-4.70
2018-11-28T09:35:55.258Z,-4.60
2018-11-28T09:38:23.333Z,-4.60
2018-11-28T09:40:51.436Z,-4.60
2018-11-28T09:43:19.644Z,-4.50
2018-11-28T09:45:47.797Z,-4.50
2018-11-28T09:48:16.075Z,-4.40
2018-11-28T09:50:44.321Z,-4.40
2018-11-28T09:53:12.421Z,-4.40
2018-11-28T09:55:40.501Z,-4.40
2018-11-28T09:58:08.701Z,-4.30
2018-11-28T10:00:37.099Z,-4.30
2018-11-28T10:03:04.828Z,-4.20
2018-11-28T10:05:33.596Z,-4.20
2018-11-28T10:08:01.673Z,-4.10
2018-11-28T10:10:30.199Z,-4.10
2018-11-28T10:12:58.452Z,-4.10
2018-11-28T10:15:26.957Z,-4.10
2018-11-28T10:17:54.933Z,-4.00
2018-11-28T10:20:23.342Z,-4.00
2018-11-28T10:22:51.875Z,-3.90
2018-11-28T10:25:20.406Z,-3.90
2018-11-28T10:27:49.192Z,-3.90
2018-11-28T10:30:18.794Z,-3.90
2018-11-28T10:32:47.160Z,-3.80
2018-11-28T10:35:15.413Z,-3.80
2018-11-28T10:37:43.480Z,-3.80
2018-11-28T10:40:13.316Z,-3.80
2018-11-28T10:42:41.482Z,-3.70
2018-11-28T10:45:10.308Z,-3.70
2018-11-28T10:47:38.396Z,-3.70
2018-11-28T10:50:07.889Z,-3.70
2018-11-28T10:52:36.064Z,-3.70
2018-11-28T10:55:04.219Z,-3.70
2018-11-28T10:57:32.343Z,-3.70
2018-11-28T11:00:01.062Z,-3.70
2018-11-28T11:02:34.684Z,-3.60
2018-11-28T11:05:07.827Z,-3.60
2018-11-28T11:07:41.069Z,-3.60
2018-11-28T11:10:14.288Z,-3.50
2018-11-28T11:12:47.839Z,-3.60
2018-11-28T11:15:15.905Z,-3.60
2018-11-28T11:17:44.058Z,-3.50
2018-11-28T11:20:12.320Z,-3.60
2018-11-28T11:22:40.414Z,-3.50
2018-11-28T11:25:08.620Z,-3.50
2018-11-28T11:27:37.016Z,-3.50
2018-11-28T11:30:06.295Z,-3.50
2018-11-28T11:32:34.465Z,-3.50
2018-11-28T11:35:02.551Z,-3.50
2018-11-28T11:37:30.621Z,-3.50
2018-11-28T11:39:58.742Z,-3.50
2018-11-28T11:42:26.881Z,-3.40
2018-11-28T11:44:55.074Z,-3.40
2018-11-28T11:47:23.167Z,-3.40
2018-11-28T11:49:51.649Z,-3.40
2018-11-28T11:52:19.754Z,-3.40
2018-11-28T11:54:47.900Z,-3.40
2018-11-28T11:57:16.281Z,-3.40
2018-11-28T11:59:44.325Z,-3.30
2018-11-28T12:02:12.460Z,-3.40
2018-11-28T12:04:40.800Z,-3.40
2018-11-28T12:07:08.994Z,-3.50
2018-11-28T12:09:37.076Z,-3.50
2018-11-28T12:12:05.404Z,-3.50
2018-11-28T12:14:33.492Z,-3.50
2018-11-28T12:17:01.596Z,-3.50
2018-11-28T12:19:29.773Z,-3.50
2018-11-28T12:21:57.813Z,-3.50
2018-11-28T12:24:26.024Z,-3.50
2018-11-28T12:26:54.367Z,-3.50
2018-11-28T12:29:22.444Z,-3.50
2018-11-28T12:31:50.696Z,-3.50
2018-11-28T12:34:19.008Z,-3.60
2018-11-28T12:36:47.157Z,-3.60
2018-11-28T12:39:16.156Z,-3.60
2018-11-28T12:41:44.289Z,-3.70
2018-11-28T12:44:12.344Z,-3.60
2018-11-28T12:46:40.426Z,-3.60
2018-11-28T12:49:08.704Z,-3.70
2018-11-28T12:51:37.060Z,-3.60
2018-11-28T12:54:05.297Z,-3.70
2018-11-28T12:56:33.655Z,-3.70
2018-11-28T12:59:01.865Z,-3.70
2018-11-28T13:01:30.076Z,-3.70
2018-11-28T13:03:58.148Z,-3.70
2018-11-28T13:06:26.516Z,-3.80
2018-11-28T13:08:54.701Z,-3.80
2018-11-28T13:11:23.024Z,-3.80
2018-11-28T13:13:51.110Z,-3.80
2018-11-28T13:16:19.208Z,-3.80
2018-11-28T13:18:47.233Z,-3.80
2018-11-28T13:21:15.489Z,-3.70
2018-11-28T13:23:43.528Z,-3.80
2018-11-28T13:26:11.760Z,-3.80
2018-11-28T13:28:39.855Z,-3.80
2018-11-28T13:31:08.092Z,-3.80
2018-11-28T13:33:36.236Z,-3.80
2018-11-28T13:36:04.276Z,-3.80
2018-11-28T13:38:32.386Z,-3.80
2018-11-28T13:41:00.742Z,-3.80
2018-11-28T13:43:28.941Z,-3.70
2018-11-28T13:45:57.012Z,-3.70
2018-11-28T13:48:25.095Z,-3.70
2018-11-28T13:50:53.193Z,-3.70
2018-11-28T13:53:21.262Z,-3.80
2018-11-28T13:56:30.117Z,-3.70
2018-11-28T13:58:18.393Z,-3.80
2018-11-28T14:00:46.398Z,-3.80
2018-11-28T14:03:14.651Z,-3.80
2018-11-28T14:05:42.924Z,-3.80
2018-11-28T14:08:11.141Z,-3.80
2018-11-28T14:10:39.384Z,-3.90
2018-11-28T14:13:07.588Z,-3.90
2018-11-28T14:15:35.846Z,-3.90
2018-11-28T14:18:05.276Z,-3.90
2018-11-28T14:20:33.386Z,-3.90
2018-11-28T14:23:01.456Z,-3.90
2018-11-28T14:25:30.171Z,-3.90
2018-11-28T14:27:58.199Z,-4.00
2018-11-28T14:30:26.297Z,-4.00
2018-11-28T14:32:54.547Z,-4.10
2018-11-28T14:35:23.036Z,-4.10
2018-11-28T14:37:51.144Z,-4.10
2018-11-28T14:40:19.812Z,-4.10
2018-11-28T14:42:49.348Z,-4.10
2018-11-28T14:45:17.767Z,-4.00
2018-11-28T14:47:46.207Z,-4.10
2018-11-28T14:50:15.559Z,-4.10
2018-11-28T14:52:43.764Z,-4.10
2018-11-28T14:55:12.571Z,-4.10
2018-11-28T14:57:40.815Z,-4.10
2018-11-28T15:00:09.840Z,-4.10
2018-11-28T15:02:38.045Z,-4.10
2018-11-28T15:05:08.601Z,-4.00
2018-11-28T15:07:36.700Z,-4.00
2018-11-28T15:10:04.957Z,-4.00
2018-11-28T15:12:33.163Z,-4.00
2018-11-28T15:15:01.363Z,-4.00
2018-11-28T15:17:29.500Z,-4.00
2018-11-28T15:19:57.815Z,-4.00
2018-11-28T15:22:25.860Z,-3.90
2018-11-28T15:24:55.660Z,-3.90
2018-11-28T15:27:23.765Z,-3.90
2018-11-28T15:29:51.962Z,-3.90
2018-11-28T15:32:20.128Z,-3.90
2018-11-28T15:34:48.339Z,-3.90
2018-11-28T15:37:16.408Z,-3.90
2018-11-28T15:39:44.524Z,-3.90
2018-11-28T15:42:12.651Z,-3.90
2018-11-28T15:44:41.481Z,-3.90
2018-11-28T15:47:09.073Z,-3.90
2018-11-28T15:49:37.137Z,-3.90
2018-11-28T15:52:05.340Z,-3.80
2018-11-28T15:54:33.482Z,-3.80
2018-11-28T15:57:01.656Z,-3.80
2018-11-28T15:59:30.500Z,-3.80
2018-11-28T16:01:58.647Z,-3.80
2018-11-28T16:04:26.760Z,-3.80
2018-11-28T16:06:54.844Z,-3.80
2018-11-28T16:09:28.560Z,-3.80
2018-11-28T16:11:57.197Z,-3.80
2018-11-28T16:14:25.408Z,-3.90
2018-11-28T16:16:53.557Z,-3.90
2018-11-28T16:19:21.628Z,-3.90
2018-11-28T16:21:49.904Z,-3.90
2018-11-28T16:24:17.976Z,-3.90
2018-11-28T16:26:46.052Z,-3.90
2018-11-28T16:29:14.228Z,-3.90
2018-11-28T16:31:42.320Z,-3.80
2018-11-28T16:34:11.398Z,-3.90
2018-11-28T16:36:39.472Z,-3.90
2018-11-28T16:39:08.225Z,-4.00
2018-11-28T16:41:36.687Z,-4.00
2018-11-28T16:44:04.904Z,-4.00
2018-11-28T16:46:33.545Z,-4.00
2018-11-28T16:49:01.737Z,-3.90
2018-11-28T16:51:29.840Z,-4.00
2018-11-28T16:53:57.985Z,-4.00
2018-11-28T16:56:26.161Z,-3.80
2018-11-28T16:58:54.396Z,-3.80
2018-11-28T17:01:22.528Z,-3.80
2018-11-28T17:03:50.611Z,-3.80
2018-11-28T17:06:18.797Z,-3.70
2018-11-28T17:08:47.081Z,-3.80
2018-11-28T17:11:16.176Z,-3.70
2018-11-28T17:13:44.380Z,-3.70
2018-11-28T17:16:12.892Z,-3.70
2018-11-28T17:18:40.951Z,-3.70
2018-11-28T17:21:09.018Z,-3.70
2018-11-28T17:23:37.288Z,-3.70
2018-11-28T17:26:05.818Z,-3.70
2018-11-28T17:28:33.927Z,-3.60
2018-11-28T17:31:02.304Z,-3.60
2018-11-28T17:33:30.380Z,-3.60
2018-11-28T17:35:58.520Z,-3.50
2018-11-28T17:38:26.686Z,-3.50
2018-11-28T17:40:55.328Z,-3.50
2018-11-28T17:43:23.571Z,-3.50
2018-11-28T17:45:52.932Z,-3.50
2018-11-28T17:48:21.020Z,-3.40
2018-11-28T17:50:49.357Z,-3.40
2018-11-28T17:53:17.511Z,-3.40
2018-11-28T17:55:47.216Z,-3.40
2018-11-28T17:58:15.333Z,-3.40
2018-11-28T18:00:43.528Z,-3.30
2018-11-28T18:03:11.535Z,-3.20
2018-11-28T18:05:39.545Z,-3.20
2018-11-28T18:08:07.723Z,-3.20
2018-11-28T18:10:35.760Z,-3.10
2018-11-28T18:13:06.316Z,-3.10
2018-11-28T18:15:34.628Z,-3.10
2018-11-28T18:18:02.697Z,-3.10
2018-11-28T18:20:31.902Z,-3.10
2018-11-28T18:23:00.293Z,-3.10
2018-11-28T18:25:29.012Z,-3.10
2018-11-28T18:27:57.129Z,-3.00
2018-11-28T18:30:25.599Z,-3.00
2018-11-28T18:32:53.638Z,-3.00
2018-11-28T18:35:21.745Z,-2.80
2018-11-28T18:37:50.084Z,-2.70
2018-11-28T18:40:18.272Z,-2.60
2018-11-28T18:42:46.910Z,-2.70
2018-11-28T18:45:15.972Z,-2.60
2018-11-28T18:47:44.544Z,-2.60
2018-11-28T18:50:13.121Z,-2.60
2018-11-28T18:52:41.356Z,-2.60
2018-11-28T18:55:16.393Z,-2.60
2018-11-28T18:57:39.102Z,-2.60
2018-11-28T19:00:10.494Z,-2.50
2018-11-28T19:02:38.561Z,-2.40
2018-11-28T19:05:06.875Z,-2.30
2018-11-28T19:07:35.147Z,-2.30
2018-11-28T19:10:03.413Z,-2.20
2018-11-28T19:12:32.032Z,-2.30
2018-11-28T19:15:00.160Z,-2.10
2018-11-28T19:17:28.625Z,-2.10
2018-11-28T19:19:56.692Z,-2.10
2018-11-28T19:22:24.922Z,-2.10
2018-11-28T19:24:54.140Z,-2.00
2018-11-28T19:27:22.257Z,-2.00
2018-11-28T19:29:50.688Z,-2.00
2018-11-28T19:32:18.876Z,-1.90
2018-11-28T19:34:48.479Z,-1.80
2018-11-28T19:37:16.620Z,-1.80
2018-11-28T19:39:44.659Z,-1.70
2018-11-28T19:42:12.834Z,-1.60
2018-11-28T19:44:41.025Z,-1.70
2018-11-28T19:47:09.092Z,-1.70
2018-11-28T19:49:38.784Z,-1.60
2018-11-28T19:52:06.948Z,-1.60
2018-11-28T19:54:35.093Z,-1.60
2018-11-28T19:57:03.396Z,-1.60
2018-11-28T19:59:46.125Z,-1.60
2018-11-28T20:02:14.240Z,-1.50
2018-11-28T20:04:42.385Z,-1.60
2018-11-28T20:07:11.319Z,-1.60
2018-11-28T20:09:39.473Z,-1.70
2018-11-28T20:12:07.673Z,-1.60
2018-11-28T20:14:35.949Z,-1.70
2018-11-28T20:17:04.037Z,-1.70
2018-11-28T20:19:32.154Z,-1.60
2018-11-28T20:22:00.287Z,-1.60
2018-11-28T20:24:28.361Z,-1.60
2018-11-28T20:26:57.746Z,-1.60
2018-11-28T20:29:27.108Z,-1.60
2018-11-28T20:31:55.180Z,-1.60
2018-11-28T20:34:23.354Z,-1.60
2018-11-28T20:36:51.517Z,-1.50
2018-11-28T20:39:19.649Z,-1.40
2018-11-28T20:41:47.732Z,-1.50
2018-11-28T20:44:15.860Z,-1.50
2018-11-28T20:46:43.930Z,-1.50
2018-11-28T20:49:12.140Z,-1.50
2018-11-28T20:51:40.289Z,-1.50
2018-11-28T20:54:08.352Z,-1.60
2018-11-28T20:56:36.735Z,-1.70
2018-11-28T20:59:05.268Z,-1.60
2018-11-28T21:01:33.347Z,-1.70
2018-11-28T21:04:01.691Z,-1.60
2018-11-28T21:06:29.781Z,-1.50
2018-11-28T21:08:57.838Z,-1.50
2018-11-28T21:11:25.944Z,-1.60
2018-11-28T21:13:54.226Z,-1.50
2018-11-28T21:16:22.278Z,-1.60
2018-11-28T21:18:50.490Z,-1.50
2018-11-28T21:21:18.923Z,-1.50
2018-11-28T21:23:47.028Z,-1.50
2018-11-28T21:26:15.178Z,-1.50
2018-11-28T21:28:43.397Z,-1.40
2018-11-28T21:31:11.436Z,-1.40
2018-11-28T21:33:39.577Z,-1.40
2018-11-28T21:36:08.089Z,-1.40
2018-11-28T21:38:36.254Z,-1.30
2018-11-28T21:41:04.413Z,-1.20
2018-11-28T21:43:32.726Z,-1.20
2018-11-28T21:46:00.914Z,-1.10
2018-11-28T21:48:29.198Z,-1.10
2018-11-28T21:50:57.300Z,-1.10
2018-11-28T21:53:25.511Z,-1.10
2018-11-28T21:55:53.798Z,-0.90
2018-11-28T21:58:22.024Z,-1.00
2018-11-28T22:00:50.082Z,-1.10
2018-11-28T22:03:18.188Z,-1.00
2018-11-28T22:05:46.634Z,-1.00
2018-11-28T22:08:14.729Z,-1.00
2018-11-28T22:10:42.828Z,-1.00
2018-11-28T22:13:11.094Z,-1.00
2018-11-28T22:15:40.007Z,-1.00
2018-11-28T22:18:08.826Z,-1.00
2018-11-28T22:20:37.155Z,-0.80
2018-11-28T22:23:06.760Z,-0.90
2018-11-28T22:25:34.820Z,-0.90
2018-11-28T22:28:03.410Z,-0.80
2018-11-28T22:30:31.666Z,-0.80
2018-11-28T22:32:59.778Z,-0.90
2018-11-28T22:35:27.933Z,-0.90
2018-11-28T22:37:56.050Z,-0.80
2018-11-28T22:40:24.721Z,-0.80
2018-11-28T22:42:53.047Z,-0.90
2018-11-28T22:45:21.672Z,-0.80
2018-11-28T22:47:49.763Z,-0.80
2018-11-28T22:50:18.155Z,-0.80
2018-11-28T22:52:46.228Z,-0.70
2018-11-28T22:55:15.052Z,-0.80
2018-11-28T22:57:43.342Z,-0.80
2018-11-28T23:00:13.344Z,-0.80
2018-11-28T23:03:14.052Z,-0.80
2018-11-28T23:05:44.438Z,-0.70
2018-11-28T23:08:13.065Z,-0.70
2018-11-28T23:10:41.217Z,-0.70
2018-11-28T23:13:10.467Z,-0.70
2018-11-28T23:15:38.560Z,-0.80
2018-11-28T23:18:07.334Z,-0.80
2018-11-28T23:20:35.597Z,-0.80
2018-11-28T23:23:03.906Z,-0.70
2018-11-28T23:25:32.088Z,-0.70
2018-11-28T23:28:00.117Z,-0.70
2018-11-28T23:30:28.237Z,-0.70
2018-11-28T23:32:56.300Z,-0.60
2018-11-28T23:35:24.444Z,-0.60
2018-11-28T23:37:52.652Z,-0.60
2018-11-28T23:40:21.411Z,-0.60
2018-11-28T23:42:49.656Z,-0.50
2018-11-28T23:45:17.953Z,-0.50
2018-11-28T23:47:46.256Z,-0.60
2018-11-28T23:50:19.772Z,-0.50
2018-11-28T23:52:48.229Z,-0.50
2018-11-28T23:55:16.637Z,-0.50
2018-11-28T23:57:45.101Z,-0.40
